sensor_id;sensor_type;location;lat;lon;timestamp;P1;durP1;ratioP1;P2;durP2;ratioP2
36001;SDS011;22070;50.922;5.430;2024-03-08T00:01:09;20.33;;;8.93;;
36001;SDS011;22070;50.922;5.430;2024-03-08T00:03:35;21.33;;;8.95;;
36001;SDS011;22070;50.922;5.430;2024-03-08T00:06:01;20.65;;;8.65;;
36001;SDS011;22070;50.922;5.430;2024-03-08T00:08:27;19.42;;;9.07;;
36001;SDS011;22070;50.922;5.430;2024-03-08T00:10:53;18.95;;;8.90;;
36001;SDS011;22070;50.922;5.430;2024-03-08T00:13:19;20.03;;;9.47;;
36001;SDS011;22070;50.922;5.430;2024-03-08T00:15:44;19.88;;;8.90;;
36001;SDS011;22070;50.922;5.430;2024-03-08T00:18:10;20.65;;;9.00;;
36001;SDS011;22070;50.922;5.430;2024-03-08T00:20:36;23.23;;;9.80;;
36001;SDS011;22070;50.922;5.430;2024-03-08T00:23:02;23.27;;;9.50;;
36001;SDS011;22070;50.922;5.430;2024-03-08T00:25:28;26.58;;;9.05;;
36001;SDS011;22070;50.922;5.430;2024-03-08T00:27:54;20.63;;;9.73;;
36001;SDS011;22070;50.922;5.430;2024-03-08T00:30:21;24.45;;;10.70;;
36001;SDS011;22070;50.922;5.430;2024-03-08T00:32:50;21.17;;;9.63;;
36001;SDS011;22070;50.922;5.430;2024-03-08T00:35:16;25.20;;;10.43;;
36001;SDS011;22070;50.922;5.430;2024-03-08T00:37:41;23.40;;;10.15;;
36001;SDS011;22070;50.922;5.430;2024-03-08T00:40:07;20.90;;;9.83;;
36001;SDS011;22070;50.922;5.430;2024-03-08T00:42:36;24.45;;;9.82;;
36001;SDS011;22070;50.922;5.430;2024-03-08T00:45:03;20.92;;;9.55;;
36001;SDS011;22070;50.922;5.430;2024-03-08T00:47:29;19.97;;;9.20;;
36001;SDS011;22070;50.922;5.430;2024-03-08T00:49:55;22.05;;;9.77;;
36001;SDS011;22070;50.922;5.430;2024-03-08T00:52:21;26.70;;;10.13;;
36001;SDS011;22070;50.922;5.430;2024-03-08T00:54:49;19.83;;;9.70;;
36001;SDS011;22070;50.922;5.430;2024-03-08T00:57:14;23.20;;;10.35;;
36001;SDS011;22070;50.922;5.430;2024-03-08T00:59:40;21.35;;;10.40;;
36001;SDS011;22070;50.922;5.430;2024-03-08T01:02:06;23.30;;;10.83;;
36001;SDS011;22070;50.922;5.430;2024-03-08T01:04:34;20.55;;;10.15;;
36001;SDS011;22070;50.922;5.430;2024-03-08T01:07:00;19.67;;;9.30;;
36001;SDS011;22070;50.922;5.430;2024-03-08T01:09:26;20.97;;;9.87;;
36001;SDS011;22070;50.922;5.430;2024-03-08T01:11:52;22.08;;;9.95;;
36001;SDS011;22070;50.922;5.430;2024-03-08T01:14:19;23.02;;;9.50;;
36001;SDS011;22070;50.922;5.430;2024-03-08T01:16:47;26.25;;;10.23;;
36001;SDS011;22070;50.922;5.430;2024-03-08T01:19:14;24.40;;;10.32;;
36001;SDS011;22070;50.922;5.430;2024-03-08T01:21:40;21.38;;;10.05;;
36001;SDS011;22070;50.922;5.430;2024-03-08T01:24:06;25.17;;;10.77;;
36001;SDS011;22070;50.922;5.430;2024-03-08T01:26:32;22.95;;;10.20;;
36001;SDS011;22070;50.922;5.430;2024-03-08T01:31:25;21.35;;;10.27;;
36001;SDS011;22070;50.922;5.430;2024-03-08T01:33:50;15.47;;;7.57;;
36001;SDS011;22070;50.922;5.430;2024-03-08T01:36:16;23.27;;;10.10;;
36001;SDS011;22070;50.922;5.430;2024-03-08T01:38:44;21.98;;;10.65;;
36001;SDS011;22070;50.922;5.430;2024-03-08T01:41:10;24.75;;;11.27;;
36001;SDS011;22070;50.922;5.430;2024-03-08T01:43:37;23.58;;;10.45;;
36001;SDS011;22070;50.922;5.430;2024-03-08T01:46:03;24.38;;;9.73;;
36001;SDS011;22070;50.922;5.430;2024-03-08T01:48:30;21.90;;;9.82;;
36001;SDS011;22070;50.922;5.430;2024-03-08T01:50:57;28.20;;;11.25;;
36001;SDS011;22070;50.922;5.430;2024-03-08T01:53:26;19.20;;;9.60;;
36001;SDS011;22070;50.922;5.430;2024-03-08T01:55:55;28.63;;;10.38;;
36001;SDS011;22070;50.922;5.430;2024-03-08T01:58:22;24.42;;;10.18;;
36001;SDS011;22070;50.922;5.430;2024-03-08T02:00:49;23.92;;;9.95;;
36001;SDS011;22070;50.922;5.430;2024-03-08T02:03:15;24.63;;;10.47;;
36001;SDS011;22070;50.922;5.430;2024-03-08T02:05:41;22.73;;;10.40;;
36001;SDS011;22070;50.922;5.430;2024-03-08T02:08:07;22.17;;;10.27;;
36001;SDS011;22070;50.922;5.430;2024-03-08T02:10:38;22.40;;;9.85;;
36001;SDS011;22070;50.922;5.430;2024-03-08T02:13:04;23.30;;;10.38;;
36001;SDS011;22070;50.922;5.430;2024-03-08T02:18:33;21.50;;;10.05;;
36001;SDS011;22070;50.922;5.430;2024-03-08T02:21:04;19.77;;;9.55;;
36001;SDS011;22070;50.922;5.430;2024-03-08T02:23:31;22.70;;;9.70;;
36001;SDS011;22070;50.922;5.430;2024-03-08T02:25:57;18.40;;;9.63;;
36001;SDS011;22070;50.922;5.430;2024-03-08T02:28:23;20.60;;;10.20;;
36001;SDS011;22070;50.922;5.430;2024-03-08T02:30:53;20.30;;;9.73;;
36001;SDS011;22070;50.922;5.430;2024-03-08T02:33:20;25.48;;;10.57;;
36001;SDS011;22070;50.922;5.430;2024-03-08T02:35:48;23.35;;;10.48;;
36001;SDS011;22070;50.922;5.430;2024-03-08T02:38:15;21.77;;;10.27;;
36001;SDS011;22070;50.922;5.430;2024-03-08T02:40:45;22.38;;;9.80;;
36001;SDS011;22070;50.922;5.430;2024-03-08T02:43:12;19.25;;;9.00;;
36001;SDS011;22070;50.922;5.430;2024-03-08T02:45:39;27.60;;;10.27;;
36001;SDS011;22070;50.922;5.430;2024-03-08T02:48:07;21.33;;;9.95;;
36001;SDS011;22070;50.922;5.430;2024-03-08T02:50:33;24.00;;;9.47;;
36001;SDS011;22070;50.922;5.430;2024-03-08T02:53:01;22.70;;;9.80;;
36001;SDS011;22070;50.922;5.430;2024-03-08T02:55:28;21.95;;;9.98;;
36001;SDS011;22070;50.922;5.430;2024-03-08T02:57:54;26.30;;;10.95;;
36001;SDS011;22070;50.922;5.430;2024-03-08T03:00:20;21.10;;;8.90;;
36001;SDS011;22070;50.922;5.430;2024-03-08T03:02:51;19.00;;;9.20;;
36001;SDS011;22070;50.922;5.430;2024-03-08T03:05:20;22.95;;;9.93;;
36001;SDS011;22070;50.922;5.430;2024-03-08T03:07:46;20.17;;;9.35;;
36001;SDS011;22070;50.922;5.430;2024-03-08T03:10:12;24.67;;;10.30;;
36001;SDS011;22070;50.922;5.430;2024-03-08T03:12:41;26.20;;;10.90;;
36001;SDS011;22070;50.922;5.430;2024-03-08T03:15:07;24.37;;;10.67;;
36001;SDS011;22070;50.922;5.430;2024-03-08T03:17:33;20.53;;;9.83;;
36001;SDS011;22070;50.922;5.430;2024-03-08T03:19:59;23.10;;;9.60;;
36001;SDS011;22070;50.922;5.430;2024-03-08T03:22:34;21.98;;;9.75;;
36001;SDS011;22070;50.922;5.430;2024-03-08T03:24:59;23.00;;;10.13;;
36001;SDS011;22070;50.922;5.430;2024-03-08T03:27:25;28.00;;;10.50;;
36001;SDS011;22070;50.922;5.430;2024-03-08T03:29:51;19.77;;;9.93;;
36001;SDS011;22070;50.922;5.430;2024-03-08T03:32:17;26.63;;;10.85;;
36001;SDS011;22070;50.922;5.430;2024-03-08T03:34:43;26.20;;;10.95;;
36001;SDS011;22070;50.922;5.430;2024-03-08T03:37:09;23.90;;;10.00;;
36001;SDS011;22070;50.922;5.430;2024-03-08T03:39:38;26.50;;;9.73;;
36001;SDS011;22070;50.922;5.430;2024-03-08T03:42:16;21.95;;;9.30;;
36001;SDS011;22070;50.922;5.430;2024-03-08T03:44:46;20.90;;;9.55;;
36001;SDS011;22070;50.922;5.430;2024-03-08T03:47:13;22.98;;;9.38;;
36001;SDS011;22070;50.922;5.430;2024-03-08T03:49:39;22.77;;;10.25;;
36001;SDS011;22070;50.922;5.430;2024-03-08T03:52:09;23.45;;;9.77;;
36001;SDS011;22070;50.922;5.430;2024-03-08T03:54:35;21.42;;;9.30;;
36001;SDS011;22070;50.922;5.430;2024-03-08T03:57:01;15.38;;;6.45;;
36001;SDS011;22070;50.922;5.430;2024-03-08T03:59:27;22.25;;;9.27;;
36001;SDS011;22070;50.922;5.430;2024-03-08T04:01:53;23.17;;;9.40;;
36001;SDS011;22070;50.922;5.430;2024-03-08T04:04:20;24.77;;;9.82;;
36001;SDS011;22070;50.922;5.430;2024-03-08T04:06:46;19.25;;;9.55;;
36001;SDS011;22070;50.922;5.430;2024-03-08T04:09:11;23.90;;;10.17;;
36001;SDS011;22070;50.922;5.430;2024-03-08T04:11:37;22.45;;;9.52;;
36001;SDS011;22070;50.922;5.430;2024-03-08T04:14:03;23.30;;;10.18;;
36001;SDS011;22070;50.922;5.430;2024-03-08T04:16:30;27.45;;;9.98;;
36001;SDS011;22070;50.922;5.430;2024-03-08T04:18:56;24.13;;;9.57;;
36001;SDS011;22070;50.922;5.430;2024-03-08T04:21:22;23.85;;;9.38;;
36001;SDS011;22070;50.922;5.430;2024-03-08T04:23:48;19.58;;;8.52;;
36001;SDS011;22070;50.922;5.430;2024-03-08T04:26:14;23.33;;;8.77;;
36001;SDS011;22070;50.922;5.430;2024-03-08T04:28:39;21.90;;;9.10;;
36001;SDS011;22070;50.922;5.430;2024-03-08T04:31:06;26.25;;;10.18;;
36001;SDS011;22070;50.922;5.430;2024-03-08T04:33:32;21.35;;;9.38;;
36001;SDS011;22070;50.922;5.430;2024-03-08T04:36:00;26.05;;;10.02;;
36001;SDS011;22070;50.922;5.430;2024-03-08T04:38:26;23.85;;;10.07;;
36001;SDS011;22070;50.922;5.430;2024-03-08T04:40:52;23.47;;;9.57;;
36001;SDS011;22070;50.922;5.430;2024-03-08T04:43:18;22.52;;;8.73;;
36001;SDS011;22070;50.922;5.430;2024-03-08T04:45:45;25.42;;;9.23;;
36001;SDS011;22070;50.922;5.430;2024-03-08T04:48:11;21.60;;;8.35;;
36001;SDS011;22070;50.922;5.430;2024-03-08T04:50:37;23.33;;;9.50;;
36001;SDS011;22070;50.922;5.430;2024-03-08T04:53:03;22.08;;;7.57;;
36001;SDS011;22070;50.922;5.430;2024-03-08T04:55:33;22.60;;;9.05;;
36001;SDS011;22070;50.922;5.430;2024-03-08T04:57:59;27.08;;;9.57;;
36001;SDS011;22070;50.922;5.430;2024-03-08T05:00:25;22.55;;;8.95;;
36001;SDS011;22070;50.922;5.430;2024-03-08T05:02:50;24.73;;;9.55;;
36001;SDS011;22070;50.922;5.430;2024-03-08T05:05:18;26.02;;;9.55;;
36001;SDS011;22070;50.922;5.430;2024-03-08T05:07:44;21.30;;;8.85;;
36001;SDS011;22070;50.922;5.430;2024-03-08T05:10:10;23.92;;;8.98;;
36001;SDS011;22070;50.922;5.430;2024-03-08T05:12:36;24.05;;;9.57;;
36001;SDS011;22070;50.922;5.430;2024-03-08T05:15:04;25.33;;;9.35;;
36001;SDS011;22070;50.922;5.430;2024-03-08T05:17:30;22.88;;;8.85;;
36001;SDS011;22070;50.922;5.430;2024-03-08T05:19:56;25.07;;;9.23;;
36001;SDS011;22070;50.922;5.430;2024-03-08T05:22:22;23.58;;;9.02;;
36001;SDS011;22070;50.922;5.430;2024-03-08T05:24:47;27.90;;;9.67;;
36001;SDS011;22070;50.922;5.430;2024-03-08T05:27:13;28.50;;;9.17;;
36001;SDS011;22070;50.922;5.430;2024-03-08T05:29:39;14.85;;;6.63;;
36001;SDS011;22070;50.922;5.430;2024-03-08T05:32:04;22.13;;;8.77;;
36001;SDS011;22070;50.922;5.430;2024-03-08T05:34:32;26.60;;;9.23;;
36001;SDS011;22070;50.922;5.430;2024-03-08T05:36:57;17.90;;;6.65;;
36001;SDS011;22070;50.922;5.430;2024-03-08T05:39:23;25.40;;;9.65;;
36001;SDS011;22070;50.922;5.430;2024-03-08T05:41:49;24.67;;;9.45;;
36001;SDS011;22070;50.922;5.430;2024-03-08T05:44:16;21.45;;;8.60;;
36001;SDS011;22070;50.922;5.430;2024-03-08T05:46:42;27.50;;;9.30;;
36001;SDS011;22070;50.922;5.430;2024-03-08T05:49:08;23.43;;;9.90;;
36001;SDS011;22070;50.922;5.430;2024-03-08T05:51:35;24.58;;;8.93;;
36001;SDS011;22070;50.922;5.430;2024-03-08T05:54:06;25.08;;;9.30;;
36001;SDS011;22070;50.922;5.430;2024-03-08T05:56:35;20.55;;;8.55;;
36001;SDS011;22070;50.922;5.430;2024-03-08T05:59:01;30.40;;;9.05;;
36001;SDS011;22070;50.922;5.430;2024-03-08T06:01:30;28.67;;;9.38;;
36001;SDS011;22070;50.922;5.430;2024-03-08T06:03:56;23.77;;;9.55;;
36001;SDS011;22070;50.922;5.430;2024-03-08T06:06:25;23.77;;;9.75;;
36001;SDS011;22070;50.922;5.430;2024-03-08T06:08:51;26.85;;;9.80;;
36001;SDS011;22070;50.922;5.430;2024-03-08T06:11:19;27.25;;;10.52;;
36001;SDS011;22070;50.922;5.430;2024-03-08T06:13:46;20.08;;;8.70;;
36001;SDS011;22070;50.922;5.430;2024-03-08T06:16:11;23.77;;;8.95;;
36001;SDS011;22070;50.922;5.430;2024-03-08T06:18:37;27.37;;;9.73;;
36001;SDS011;22070;50.922;5.430;2024-03-08T06:21:04;22.95;;;8.90;;
36001;SDS011;22070;50.922;5.430;2024-03-08T06:26:07;22.90;;;8.43;;
36001;SDS011;22070;50.922;5.430;2024-03-08T06:28:33;25.90;;;9.60;;
36001;SDS011;22070;50.922;5.430;2024-03-08T06:30:59;25.05;;;9.75;;
36001;SDS011;22070;50.922;5.430;2024-03-08T06:33:25;19.53;;;6.80;;
36001;SDS011;22070;50.922;5.430;2024-03-08T06:35:52;22.23;;;9.60;;
36001;SDS011;22070;50.922;5.430;2024-03-08T06:38:18;24.25;;;9.50;;
36001;SDS011;22070;50.922;5.430;2024-03-08T06:40:44;24.55;;;8.93;;
36001;SDS011;22070;50.922;5.430;2024-03-08T06:43:13;22.65;;;8.55;;
36001;SDS011;22070;50.922;5.430;2024-03-08T06:45:41;26.92;;;9.43;;
36001;SDS011;22070;50.922;5.430;2024-03-08T06:48:13;26.50;;;9.90;;
36001;SDS011;22070;50.922;5.430;2024-03-08T06:50:39;23.13;;;9.43;;
36001;SDS011;22070;50.922;5.430;2024-03-08T06:53:05;29.40;;;10.00;;
36001;SDS011;22070;50.922;5.430;2024-03-08T06:55:31;21.50;;;8.90;;
36001;SDS011;22070;50.922;5.430;2024-03-08T06:57:58;23.50;;;9.18;;
36001;SDS011;22070;50.922;5.430;2024-03-08T07:00:23;24.97;;;9.37;;
36001;SDS011;22070;50.922;5.430;2024-03-08T07:02:52;24.77;;;9.18;;
36001;SDS011;22070;50.922;5.430;2024-03-08T07:05:18;27.70;;;10.02;;
36001;SDS011;22070;50.922;5.430;2024-03-08T07:07:45;23.07;;;9.10;;
36001;SDS011;22070;50.922;5.430;2024-03-08T07:10:13;26.80;;;8.98;;
36001;SDS011;22070;50.922;5.430;2024-03-08T07:15:06;26.50;;;9.68;;
36001;SDS011;22070;50.922;5.430;2024-03-08T07:17:32;24.50;;;9.20;;
36001;SDS011;22070;50.922;5.430;2024-03-08T07:20:00;25.30;;;9.13;;
36001;SDS011;22070;50.922;5.430;2024-03-08T07:22:36;23.77;;;9.13;;
36001;SDS011;22070;50.922;5.430;2024-03-08T07:25:02;24.80;;;9.55;;
36001;SDS011;22070;50.922;5.430;2024-03-08T07:30:19;26.27;;;8.98;;
36001;SDS011;22070;50.922;5.430;2024-03-08T07:33:09;22.67;;;8.68;;
36001;SDS011;22070;50.922;5.430;2024-03-08T07:35:38;28.38;;;9.65;;
36001;SDS011;22070;50.922;5.430;2024-03-08T07:38:05;24.90;;;9.25;;
36001;SDS011;22070;50.922;5.430;2024-03-08T07:40:35;24.73;;;9.75;;
36001;SDS011;22070;50.922;5.430;2024-03-08T07:43:03;23.73;;;10.05;;
36001;SDS011;22070;50.922;5.430;2024-03-08T07:45:29;26.42;;;9.23;;
36001;SDS011;22070;50.922;5.430;2024-03-08T07:47:55;22.75;;;9.43;;
36001;SDS011;22070;50.922;5.430;2024-03-08T07:50:21;22.45;;;9.25;;
36001;SDS011;22070;50.922;5.430;2024-03-08T07:52:47;27.35;;;9.93;;
36001;SDS011;22070;50.922;5.430;2024-03-08T07:55:13;26.33;;;9.15;;
36001;SDS011;22070;50.922;5.430;2024-03-08T07:57:40;21.35;;;8.85;;
36001;SDS011;22070;50.922;5.430;2024-03-08T08:00:07;25.35;;;8.70;;
36001;SDS011;22070;50.922;5.430;2024-03-08T08:02:34;24.63;;;8.85;;
36001;SDS011;22070;50.922;5.430;2024-03-08T08:05:01;20.42;;;8.40;;
36001;SDS011;22070;50.922;5.430;2024-03-08T08:07:27;26.48;;;9.98;;
36001;SDS011;22070;50.922;5.430;2024-03-08T08:09:53;23.25;;;8.35;;
36001;SDS011;22070;50.922;5.430;2024-03-08T08:12:18;24.70;;;9.67;;
36001;SDS011;22070;50.922;5.430;2024-03-08T08:14:44;23.20;;;9.37;;
36001;SDS011;22070;50.922;5.430;2024-03-08T08:17:11;23.88;;;9.70;;
36001;SDS011;22070;50.922;5.430;2024-03-08T08:19:37;25.80;;;9.45;;
36001;SDS011;22070;50.922;5.430;2024-03-08T08:22:05;26.48;;;9.27;;
36001;SDS011;22070;50.922;5.430;2024-03-08T08:24:33;20.40;;;7.80;;
36001;SDS011;22070;50.922;5.430;2024-03-08T08:27:02;22.35;;;7.70;;
36001;SDS011;22070;50.922;5.430;2024-03-08T08:29:28;23.95;;;9.30;;
36001;SDS011;22070;50.922;5.430;2024-03-08T08:31:57;23.27;;;8.65;;
36001;SDS011;22070;50.922;5.430;2024-03-08T08:34:24;18.48;;;7.57;;
36001;SDS011;22070;50.922;5.430;2024-03-08T08:36:51;24.90;;;8.90;;
36001;SDS011;22070;50.922;5.430;2024-03-08T08:39:18;20.98;;;8.85;;
36001;SDS011;22070;50.922;5.430;2024-03-08T08:41:44;20.90;;;8.27;;
36001;SDS011;22070;50.922;5.430;2024-03-08T08:44:10;15.10;;;6.55;;
36001;SDS011;22070;50.922;5.430;2024-03-08T08:46:37;20.20;;;8.45;;
36001;SDS011;22070;50.922;5.430;2024-03-08T08:49:04;21.00;;;7.93;;
36001;SDS011;22070;50.922;5.430;2024-03-08T08:51:31;20.38;;;8.20;;
36001;SDS011;22070;50.922;5.430;2024-03-08T08:53:58;23.90;;;8.73;;
36001;SDS011;22070;50.922;5.430;2024-03-08T08:56:24;23.77;;;8.57;;
36001;SDS011;22070;50.922;5.430;2024-03-08T08:58:51;18.42;;;8.13;;
36001;SDS011;22070;50.922;5.430;2024-03-08T09:01:18;24.50;;;9.80;;
36001;SDS011;22070;50.922;5.430;2024-03-08T09:03:44;22.40;;;8.77;;
36001;SDS011;22070;50.922;5.430;2024-03-08T09:06:11;22.45;;;9.02;;
36001;SDS011;22070;50.922;5.430;2024-03-08T09:08:41;19.35;;;8.35;;
36001;SDS011;22070;50.922;5.430;2024-03-08T09:11:07;21.48;;;8.52;;
36001;SDS011;22070;50.922;5.430;2024-03-08T09:13:33;22.67;;;9.38;;
36001;SDS011;22070;50.922;5.430;2024-03-08T09:15:59;20.52;;;7.97;;
36001;SDS011;22070;50.922;5.430;2024-03-08T09:18:25;23.02;;;8.52;;
36001;SDS011;22070;50.922;5.430;2024-03-08T09:20:51;20.27;;;8.77;;
36001;SDS011;22070;50.922;5.430;2024-03-08T09:23:21;19.75;;;8.02;;
36001;SDS011;22070;50.922;5.430;2024-03-08T09:25:47;22.67;;;8.77;;
36001;SDS011;22070;50.922;5.430;2024-03-08T09:28:13;23.35;;;8.93;;
36001;SDS011;22070;50.922;5.430;2024-03-08T09:30:39;19.57;;;8.63;;
36001;SDS011;22070;50.922;5.430;2024-03-08T09:33:05;19.90;;;6.47;;
36001;SDS011;22070;50.922;5.430;2024-03-08T09:35:31;23.27;;;8.30;;
36001;SDS011;22070;50.922;5.430;2024-03-08T09:37:57;22.40;;;9.20;;
36001;SDS011;22070;50.922;5.430;2024-03-08T09:40:23;22.67;;;9.68;;
36001;SDS011;22070;50.922;5.430;2024-03-08T09:42:50;39.10;;;9.80;;
36001;SDS011;22070;50.922;5.430;2024-03-08T09:47:45;22.45;;;8.48;;
36001;SDS011;22070;50.922;5.430;2024-03-08T09:50:11;18.58;;;8.27;;
36001;SDS011;22070;50.922;5.430;2024-03-08T09:52:39;19.80;;;8.82;;
36001;SDS011;22070;50.922;5.430;2024-03-08T09:55:05;20.38;;;7.82;;
36001;SDS011;22070;50.922;5.430;2024-03-08T09:57:32;19.48;;;9.30;;
36001;SDS011;22070;50.922;5.430;2024-03-08T10:00:00;21.45;;;8.73;;
36001;SDS011;22070;50.922;5.430;2024-03-08T10:02:25;28.38;;;9.00;;
36001;SDS011;22070;50.922;5.430;2024-03-08T10:04:51;18.73;;;7.82;;
36001;SDS011;22070;50.922;5.430;2024-03-08T10:07:18;21.60;;;8.73;;
36001;SDS011;22070;50.922;5.430;2024-03-08T10:09:44;18.33;;;7.63;;
36001;SDS011;22070;50.922;5.430;2024-03-08T10:12:15;19.42;;;8.55;;
36001;SDS011;22070;50.922;5.430;2024-03-08T10:14:42;19.95;;;8.55;;
36001;SDS011;22070;50.922;5.430;2024-03-08T10:17:08;16.40;;;7.07;;
36001;SDS011;22070;50.922;5.430;2024-03-08T10:19:34;18.42;;;8.45;;
36001;SDS011;22070;50.922;5.430;2024-03-08T10:22:00;18.75;;;8.60;;
36001;SDS011;22070;50.922;5.430;2024-03-08T10:24:26;18.65;;;8.02;;
36001;SDS011;22070;50.922;5.430;2024-03-08T10:26:52;21.70;;;8.68;;
36001;SDS011;22070;50.922;5.430;2024-03-08T10:29:19;18.15;;;8.25;;
36001;SDS011;22070;50.922;5.430;2024-03-08T10:31:45;21.10;;;7.68;;
36001;SDS011;22070;50.922;5.430;2024-03-08T10:34:11;17.50;;;7.20;;
36001;SDS011;22070;50.922;5.430;2024-03-08T10:36:36;19.70;;;8.48;;
36001;SDS011;22070;50.922;5.430;2024-03-08T10:39:07;18.85;;;8.25;;
36001;SDS011;22070;50.922;5.430;2024-03-08T10:41:44;25.95;;;7.68;;
36001;SDS011;22070;50.922;5.430;2024-03-08T10:49:23;19.33;;;8.43;;
36001;SDS011;22070;50.922;5.430;2024-03-08T10:51:55;23.67;;;9.00;;
36001;SDS011;22070;50.922;5.430;2024-03-08T10:54:23;17.45;;;7.10;;
36001;SDS011;22070;50.922;5.430;2024-03-08T10:56:51;18.88;;;8.10;;
36001;SDS011;22070;50.922;5.430;2024-03-08T10:59:17;13.57;;;6.35;;
36001;SDS011;22070;50.922;5.430;2024-03-08T11:01:44;19.42;;;8.15;;
36001;SDS011;22070;50.922;5.430;2024-03-08T11:04:10;18.37;;;8.60;;
36001;SDS011;22070;50.922;5.430;2024-03-08T11:09:02;21.43;;;8.13;;
36001;SDS011;22070;50.922;5.430;2024-03-08T11:11:32;22.10;;;8.50;;
36001;SDS011;22070;50.922;5.430;2024-03-08T11:14:00;17.38;;;8.18;;
36001;SDS011;22070;50.922;5.430;2024-03-08T11:21:29;16.42;;;6.85;;
36001;SDS011;22070;50.922;5.430;2024-03-08T11:24:01;14.48;;;7.22;;
36001;SDS011;22070;50.922;5.430;2024-03-08T11:26:36;16.83;;;8.20;;
36001;SDS011;22070;50.922;5.430;2024-03-08T11:32:08;19.23;;;8.80;;
36001;SDS011;22070;50.922;5.430;2024-03-08T11:34:41;16.73;;;7.82;;
36001;SDS011;22070;50.922;5.430;2024-03-08T11:37:27;18.38;;;7.85;;
36001;SDS011;22070;50.922;5.430;2024-03-08T11:39:55;18.65;;;8.38;;
36001;SDS011;22070;50.922;5.430;2024-03-08T11:42:24;20.92;;;8.50;;
36001;SDS011;22070;50.922;5.430;2024-03-08T11:44:53;17.88;;;8.45;;
36001;SDS011;22070;50.922;5.430;2024-03-08T11:47:20;10.50;;;5.78;;
36001;SDS011;22070;50.922;5.430;2024-03-08T11:52:13;17.35;;;7.35;;
36001;SDS011;22070;50.922;5.430;2024-03-08T11:54:41;16.35;;;7.40;;
36001;SDS011;22070;50.922;5.430;2024-03-08T11:57:08;22.00;;;8.77;;
36001;SDS011;22070;50.922;5.430;2024-03-08T11:59:35;17.08;;;7.40;;
36001;SDS011;22070;50.922;5.430;2024-03-08T12:02:07;18.50;;;8.60;;
36001;SDS011;22070;50.922;5.430;2024-03-08T12:04:36;17.05;;;8.13;;
36001;SDS011;22070;50.922;5.430;2024-03-08T12:07:02;18.15;;;7.57;;
36001;SDS011;22070;50.922;5.430;2024-03-08T12:09:33;16.40;;;7.93;;
36001;SDS011;22070;50.922;5.430;2024-03-08T12:12:01;17.80;;;7.35;;
36001;SDS011;22070;50.922;5.430;2024-03-08T12:14:32;15.63;;;7.55;;
36001;SDS011;22070;50.922;5.430;2024-03-08T12:16:58;19.58;;;8.25;;
36001;SDS011;22070;50.922;5.430;2024-03-08T12:19:28;17.40;;;7.50;;
36001;SDS011;22070;50.922;5.430;2024-03-08T12:21:54;18.67;;;9.00;;
36001;SDS011;22070;50.922;5.430;2024-03-08T12:24:20;19.73;;;8.02;;
36001;SDS011;22070;50.922;5.430;2024-03-08T12:26:46;15.50;;;7.95;;
36001;SDS011;22070;50.922;5.430;2024-03-08T12:29:25;16.88;;;8.00;;
36001;SDS011;22070;50.922;5.430;2024-03-08T12:31:54;21.85;;;8.27;;
36001;SDS011;22070;50.922;5.430;2024-03-08T12:34:23;16.80;;;7.90;;
36001;SDS011;22070;50.922;5.430;2024-03-08T12:36:50;19.38;;;6.10;;
36001;SDS011;22070;50.922;5.430;2024-03-08T12:39:20;17.70;;;8.40;;
36001;SDS011;22070;50.922;5.430;2024-03-08T12:41:55;18.58;;;7.65;;
36001;SDS011;22070;50.922;5.430;2024-03-08T12:44:25;14.40;;;6.60;;
36001;SDS011;22070;50.922;5.430;2024-03-08T12:46:51;16.53;;;7.57;;
36001;SDS011;22070;50.922;5.430;2024-03-08T12:49:18;15.88;;;7.68;;
36001;SDS011;22070;50.922;5.430;2024-03-08T12:51:47;18.10;;;7.90;;
36001;SDS011;22070;50.922;5.430;2024-03-08T12:54:13;16.87;;;7.93;;
36001;SDS011;22070;50.922;5.430;2024-03-08T12:56:39;16.73;;;8.07;;
36001;SDS011;22070;50.922;5.430;2024-03-08T12:59:05;15.40;;;7.23;;
36001;SDS011;22070;50.922;5.430;2024-03-08T13:01:38;14.80;;;7.10;;
36001;SDS011;22070;50.922;5.430;2024-03-08T13:04:04;17.47;;;7.77;;
36001;SDS011;22070;50.922;5.430;2024-03-08T13:06:32;17.27;;;7.18;;
36001;SDS011;22070;50.922;5.430;2024-03-08T13:08:58;14.90;;;7.22;;
36001;SDS011;22070;50.922;5.430;2024-03-08T13:11:25;15.02;;;8.05;;
36001;SDS011;22070;50.922;5.430;2024-03-08T13:13:52;17.92;;;8.20;;
36001;SDS011;22070;50.922;5.430;2024-03-08T13:16:18;16.50;;;8.03;;
36001;SDS011;22070;50.922;5.430;2024-03-08T13:18:44;16.90;;;8.27;;
36001;SDS011;22070;50.922;5.430;2024-03-08T13:21:13;20.08;;;8.93;;
36001;SDS011;22070;50.922;5.430;2024-03-08T13:23:40;17.38;;;7.60;;
36001;SDS011;22070;50.922;5.430;2024-03-08T13:26:10;16.60;;;8.00;;
36001;SDS011;22070;50.922;5.430;2024-03-08T13:28:46;14.75;;;7.60;;
36001;SDS011;22070;50.922;5.430;2024-03-08T13:31:19;19.45;;;7.10;;
36001;SDS011;22070;50.922;5.430;2024-03-08T13:33:48;17.42;;;8.52;;
36001;SDS011;22070;50.922;5.430;2024-03-08T13:36:14;16.55;;;7.80;;
36001;SDS011;22070;50.922;5.430;2024-03-08T13:38:45;15.80;;;7.17;;
36001;SDS011;22070;50.922;5.430;2024-03-08T13:41:11;17.50;;;6.65;;
36001;SDS011;22070;50.922;5.430;2024-03-08T13:43:40;15.88;;;7.22;;
36001;SDS011;22070;50.922;5.430;2024-03-08T13:46:06;15.00;;;7.65;;
36001;SDS011;22070;50.922;5.430;2024-03-08T13:48:32;11.37;;;5.63;;
36001;SDS011;22070;50.922;5.430;2024-03-08T13:50:58;15.90;;;7.70;;
36001;SDS011;22070;50.922;5.430;2024-03-08T13:53:25;15.77;;;7.72;;
36001;SDS011;22070;50.922;5.430;2024-03-08T13:55:51;15.87;;;7.47;;
36001;SDS011;22070;50.922;5.430;2024-03-08T13:58:17;13.55;;;7.20;;
36001;SDS011;22070;50.922;5.430;2024-03-08T14:00:45;14.90;;;7.28;;
36001;SDS011;22070;50.922;5.430;2024-03-08T14:03:12;15.57;;;7.38;;
36001;SDS011;22070;50.922;5.430;2024-03-08T14:05:39;17.57;;;7.20;;
36001;SDS011;22070;50.922;5.430;2024-03-08T14:08:06;13.60;;;6.45;;
36001;SDS011;22070;50.922;5.430;2024-03-08T14:10:33;18.42;;;7.50;;
36001;SDS011;22070;50.922;5.430;2024-03-08T14:12:59;15.95;;;7.15;;
36001;SDS011;22070;50.922;5.430;2024-03-08T14:15:25;10.48;;;5.07;;
36001;SDS011;22070;50.922;5.430;2024-03-08T14:17:55;14.67;;;6.87;;
36001;SDS011;22070;50.922;5.430;2024-03-08T14:20:22;15.82;;;7.63;;
36001;SDS011;22070;50.922;5.430;2024-03-08T14:22:54;16.02;;;7.18;;
36001;SDS011;22070;50.922;5.430;2024-03-08T14:25:20;16.17;;;7.43;;
36001;SDS011;22070;50.922;5.430;2024-03-08T14:27:49;13.85;;;7.00;;
36001;SDS011;22070;50.922;5.430;2024-03-08T14:30:23;13.63;;;6.95;;
36001;SDS011;22070;50.922;5.430;2024-03-08T14:33:00;15.48;;;7.88;;
36001;SDS011;22070;50.922;5.430;2024-03-08T14:35:34;14.65;;;7.07;;
36001;SDS011;22070;50.922;5.430;2024-03-08T14:40:26;14.93;;;7.53;;
36001;SDS011;22070;50.922;5.430;2024-03-08T14:42:52;15.53;;;7.27;;
36001;SDS011;22070;50.922;5.430;2024-03-08T14:45:18;12.80;;;6.93;;
36001;SDS011;22070;50.922;5.430;2024-03-08T14:47:47;14.25;;;6.65;;
36001;SDS011;22070;50.922;5.430;2024-03-08T14:50:19;12.70;;;6.68;;
36001;SDS011;22070;50.922;5.430;2024-03-08T14:52:47;14.95;;;7.25;;
36001;SDS011;22070;50.922;5.430;2024-03-08T14:55:16;14.93;;;7.22;;
36001;SDS011;22070;50.922;5.430;2024-03-08T14:57:45;13.77;;;7.25;;
36001;SDS011;22070;50.922;5.430;2024-03-08T15:00:11;13.43;;;7.10;;
36001;SDS011;22070;50.922;5.430;2024-03-08T15:02:54;14.02;;;6.32;;
36001;SDS011;22070;50.922;5.430;2024-03-08T15:05:24;13.60;;;6.68;;
36001;SDS011;22070;50.922;5.430;2024-03-08T15:07:53;13.02;;;6.63;;
36001;SDS011;22070;50.922;5.430;2024-03-08T15:10:19;14.27;;;6.50;;